createdAt,value
2022-10-13T00:00:58.357Z,101860.16
2022-10-13T00:03:25.241Z,101813.41
2022-10-13T00:05:52.319Z,101863.78
2022-10-13T00:08:22.376Z,101752.47
2022-10-13T00:10:51.528Z,101782.59
2022-10-13T00:13:20.749Z,101841.91
2022-10-13T00:15:48.926Z,101856.88
2022-10-13T00:18:16.227Z,101657.59
2022-10-13T00:20:47.579Z,101824.28
2022-10-13T00:23:14.754Z,101863.81
2022-10-13T00:25:43.636Z,101862.13
2022-10-13T00:28:12.433Z,101828.03
2022-10-13T00:30:40.025Z,101778.94
2022-10-13T00:33:07.404Z,101827.47
2022-10-13T00:35:34.512Z,101863.28
2022-10-13T00:38:02.435Z,101862.97
2022-10-13T00:40:29.129Z,101861.06
2022-10-13T00:42:55.934Z,101751.91
2022-10-13T00:45:29.718Z,101841.94
2022-10-13T00:48:00.515Z,101853.06
2022-10-13T00:50:33.810Z,101659.59
2022-10-13T00:53:01.653Z,101855.44
2022-10-13T00:55:32.039Z,101857.44
2022-10-13T00:58:05.220Z,101867.34
2022-10-13T01:00:33.505Z,101862.09
2022-10-13T01:03:01.713Z,101852.94
2022-10-13T01:05:30.348Z,101842.53
2022-10-13T01:07:58.176Z,101820.28
2022-10-13T01:10:59.776Z,101850.66
2022-10-13T01:14:03.303Z,101847.66
2022-10-13T01:16:51.731Z,101799.25
2022-10-13T01:19:36.598Z,101860.34
2022-10-13T01:22:18.461Z,101855.56
2022-10-13T01:24:56.374Z,101845.41
2022-10-13T01:27:36.437Z,101684.75
2022-10-13T01:30:16.022Z,101832.69
2022-10-13T01:33:07.311Z,101794.28
2022-10-13T01:35:53.534Z,101819.91
2022-10-13T01:38:26.203Z,101792.50
2022-10-13T01:41:05.914Z,101836.38
2022-10-13T01:43:38.390Z,101838.38
2022-10-13T01:46:14.009Z,101703.28
2022-10-13T01:48:43.655Z,101826.69
2022-10-13T01:51:14.450Z,101831.78
2022-10-13T01:53:42.706Z,101782.97
2022-10-13T01:56:09.528Z,101813.34
2022-10-13T01:58:38.095Z,101797.09
2022-10-13T02:01:34.975Z,101833.66
2022-10-13T02:04:10.143Z,101818.19
2022-10-13T02:06:46.291Z,101826.16
2022-10-13T02:09:35.807Z,101817.72
2022-10-13T02:12:08.280Z,101811.97
2022-10-13T02:14:38.366Z,101812.13
2022-10-13T02:17:05.804Z,101761.63
2022-10-13T02:19:38.363Z,101831.16
2022-10-13T02:22:07.817Z,101758.63
2022-10-13T02:24:34.702Z,101747.50
2022-10-13T02:27:06.047Z,101820.41
2022-10-13T02:29:32.840Z,101809.13
2022-10-13T02:31:59.440Z,101737.53
2022-10-13T02:34:26.240Z,101798.84
2022-10-13T02:36:52.910Z,101648.16
2022-10-13T02:39:19.670Z,101793.31
2022-10-13T02:41:46.452Z,101752.69
2022-10-13T02:44:12.957Z,101779.84
2022-10-13T02:46:39.475Z,101775.44
2022-10-13T02:49:06.031Z,101803.28
2022-10-13T02:51:37.486Z,101807.91
2022-10-13T02:54:06.493Z,101742.59
2022-10-13T02:56:33.163Z,101766.63
2022-10-13T02:58:59.916Z,101709.56
2022-10-13T03:01:26.523Z,101782.97
2022-10-13T03:03:53.158Z,101732.50
2022-10-13T03:06:19.839Z,101786.50
2022-10-13T03:08:46.496Z,101778.81
2022-10-13T03:11:13.171Z,101704.28
2022-10-13T03:13:39.984Z,101767.84
2022-10-13T03:16:07.365Z,101767.25
2022-10-13T03:18:34.436Z,101762.19
2022-10-13T03:21:03.800Z,101793.19
2022-10-13T03:23:30.428Z,101805.22
2022-10-13T03:25:57.088Z,101785.78
2022-10-13T03:28:23.858Z,101792.41
2022-10-13T03:30:50.571Z,101790.00
2022-10-13T03:33:17.271Z,101788.34
2022-10-13T03:35:44.776Z,101788.34
2022-10-13T03:38:11.549Z,101778.19
2022-10-13T03:40:38.420Z,101783.94
2022-10-13T03:43:04.995Z,101793.38
2022-10-13T03:45:31.629Z,101771.28
2022-10-13T03:47:58.848Z,101795.38
2022-10-13T03:50:25.678Z,101792.00
2022-10-13T03:52:52.240Z,101753.00
2022-10-13T03:55:18.868Z,101786.53
2022-10-13T03:57:45.518Z,101794.00
2022-10-13T04:00:13.041Z,101800.66
2022-10-13T04:02:39.731Z,101758.28
2022-10-13T04:05:06.557Z,101791.53
2022-10-13T04:07:33.454Z,101790.88
2022-10-13T04:10:00.037Z,101722.47
2022-10-13T04:12:27.232Z,101800.91
2022-10-13T04:14:53.992Z,101778.66
2022-10-13T04:17:20.540Z,101804.59
2022-10-13T04:19:47.333Z,101713.31
2022-10-13T04:22:13.891Z,101782.19
2022-10-13T04:24:40.573Z,101786.41
2022-10-13T04:27:07.260Z,101797.91
2022-10-13T04:29:33.875Z,101770.03
2022-10-13T04:32:00.743Z,101798.38
2022-10-13T04:34:27.360Z,101733.19
2022-10-13T04:36:54.030Z,101790.63
2022-10-13T04:39:20.750Z,101790.22
2022-10-13T04:41:47.384Z,101792.19
2022-10-13T04:44:14.035Z,101783.00
2022-10-13T04:46:40.721Z,101759.50
2022-10-13T04:49:07.390Z,101751.03
2022-10-13T04:51:34.138Z,101713.28
2022-10-13T04:54:02.414Z,101752.16
2022-10-13T04:56:29.181Z,101761.19
2022-10-13T04:58:55.959Z,101787.13
2022-10-13T05:01:24.622Z,101789.41
2022-10-13T05:03:53.699Z,101734.81
2022-10-13T05:06:23.414Z,101749.44
2022-10-13T05:08:50.589Z,101796.78
2022-10-13T05:11:20.010Z,101784.09
2022-10-13T05:13:48.167Z,101798.75
2022-10-13T05:16:17.950Z,101803.28
2022-10-13T05:18:45.226Z,101629.28
2022-10-13T05:21:20.858Z,101669.13
2022-10-13T05:23:48.191Z,101713.00
2022-10-13T05:26:17.692Z,101798.44
2022-10-13T05:28:44.776Z,101795.91
2022-10-13T05:31:21.539Z,101798.59
2022-10-13T05:33:49.121Z,101718.69
2022-10-13T05:36:18.789Z,101757.88
2022-10-13T05:38:45.727Z,101764.66
2022-10-13T05:41:14.438Z,101652.91
2022-10-13T05:43:42.333Z,101796.03
2022-10-13T05:46:09.833Z,101799.13
2022-10-13T05:48:37.200Z,101790.09
2022-10-13T05:51:10.219Z,101703.56
2022-10-13T05:53:49.715Z,101798.56
2022-10-13T05:56:23.466Z,101790.78
2022-10-13T05:58:54.713Z,101788.13
2022-10-13T06:01:25.777Z,101729.81
2022-10-13T06:03:55.961Z,101763.97
2022-10-13T06:06:27.838Z,101757.22
2022-10-13T06:08:57.195Z,101788.34
2022-10-13T06:11:23.900Z,101702.59
2022-10-13T06:13:50.496Z,101786.34
2022-10-13T06:16:18.428Z,101779.41
2022-10-13T06:18:45.227Z,101749.56
2022-10-13T06:21:15.041Z,101608.59
2022-10-13T06:23:41.875Z,101726.44
2022-10-13T06:26:10.979Z,101749.50
2022-10-13T06:28:37.823Z,101689.28
2022-10-13T06:31:06.719Z,101768.06
2022-10-13T06:33:34.728Z,101714.56
2022-10-13T06:36:03.453Z,101743.53
2022-10-13T06:38:30.586Z,101768.84
2022-10-13T06:41:07.641Z,101731.88
2022-10-13T06:43:40.160Z,101711.03
2022-10-13T06:46:08.097Z,101752.94
2022-10-13T06:48:35.519Z,101759.81
2022-10-13T06:51:08.107Z,101760.72
2022-10-13T06:53:34.959Z,101738.59
2022-10-13T06:56:03.177Z,101769.56
2022-10-13T06:58:29.945Z,101772.00
2022-10-13T07:00:56.794Z,101694.41
2022-10-13T07:03:25.137Z,101713.94
2022-10-13T07:05:51.916Z,101772.72
2022-10-13T07:08:19.168Z,101780.97
2022-10-13T07:10:45.775Z,101778.09
2022-10-13T07:13:12.647Z,101781.34
2022-10-13T07:15:40.361Z,101697.09
2022-10-13T07:18:07.970Z,101749.41
2022-10-13T07:20:34.930Z,101772.03
2022-10-13T07:23:02.220Z,101775.41
2022-10-13T07:25:29.307Z,101691.44
2022-10-13T07:27:55.978Z,101777.41
2022-10-13T07:30:22.721Z,101769.78
2022-10-13T07:32:49.574Z,101787.34
2022-10-13T07:35:16.568Z,101787.81
2022-10-13T07:37:43.181Z,101730.09
2022-10-13T07:40:10.411Z,101753.81
2022-10-13T07:42:37.023Z,101786.44
2022-10-13T07:45:03.934Z,101763.09
2022-10-13T07:47:30.554Z,101794.09
2022-10-13T07:49:57.232Z,101763.63
2022-10-13T07:52:23.835Z,101791.63
2022-10-13T07:54:51.376Z,101794.69
2022-10-13T07:57:18.473Z,101794.72
2022-10-13T07:59:45.254Z,101782.97
2022-10-13T08:02:11.848Z,101790.06
2022-10-13T08:04:39.170Z,101787.72
2022-10-13T08:07:06.692Z,101783.72
2022-10-13T08:09:34.242Z,101793.13
2022-10-13T08:12:01.950Z,101791.44
2022-10-13T08:14:29.811Z,101788.75
2022-10-13T08:16:57.840Z,101790.75
2022-10-13T08:19:26.599Z,101791.13
2022-10-13T08:21:58.766Z,101795.44
2022-10-13T08:24:27.927Z,101783.53
2022-10-13T08:26:56.706Z,101791.34
2022-10-13T08:29:24.303Z,101791.22
2022-10-13T08:31:53.208Z,101795.78
2022-10-13T08:34:21.229Z,101709.34
2022-10-13T08:36:48.012Z,101803.97
2022-10-13T08:39:14.588Z,101796.38
2022-10-13T08:41:44.129Z,101779.44
2022-10-13T08:45:02.719Z,101800.25
2022-10-13T08:47:23.954Z,101797.63
2022-10-13T08:49:50.584Z,101802.84
2022-10-13T08:52:23.267Z,101802.88
2022-10-13T08:54:50.968Z,101811.16
2022-10-13T08:57:18.755Z,101808.31
2022-10-13T08:59:46.659Z,101779.19
2022-10-13T09:02:27.148Z,101791.81
2022-10-13T09:04:54.219Z,101811.72
2022-10-13T09:07:28.421Z,101808.06
2022-10-13T09:09:56.586Z,101806.72
2022-10-13T09:12:25.131Z,101791.06
2022-10-13T09:15:10.209Z,101624.19
2022-10-13T09:17:38.874Z,101800.47
2022-10-13T09:20:25.308Z,101794.22
2022-10-13T09:23:14.703Z,101795.53
2022-10-13T09:25:50.660Z,101725.19
2022-10-13T09:28:24.518Z,101800.91
2022-10-13T09:31:04.400Z,101779.00
2022-10-13T09:33:40.279Z,101793.78
2022-10-13T09:36:17.818Z,101679.97
2022-10-13T09:39:08.903Z,101759.63
2022-10-13T09:41:36.336Z,101782.44
2022-10-13T09:44:16.577Z,101730.63
2022-10-13T09:46:56.311Z,101780.69
2022-10-13T09:49:39.565Z,101772.41
2022-10-13T09:52:23.729Z,101749.81
2022-10-13T09:54:53.342Z,101769.75
2022-10-13T09:57:28.804Z,101773.41
2022-10-13T10:00:07.793Z,101767.22
2022-10-13T10:02:41.024Z,101735.38
2022-10-13T10:05:29.047Z,101758.88
2022-10-13T10:08:06.664Z,101758.13
2022-10-13T10:10:36.128Z,101758.91
2022-10-13T10:13:03.993Z,101759.75
2022-10-13T10:15:59.833Z,101755.13
2022-10-13T10:18:48.424Z,101750.47
2022-10-13T10:21:43.437Z,101741.78
2022-10-13T10:24:36.160Z,101750.53
2022-10-13T10:29:50.057Z,101676.97
2022-10-13T10:32:38.346Z,101753.22
2022-10-13T10:35:13.887Z,101723.44
2022-10-13T10:38:03.909Z,101683.44
2022-10-13T10:40:49.778Z,101685.59
2022-10-13T10:43:37.388Z,101679.69
2022-10-13T10:46:12.975Z,101729.09
2022-10-13T10:48:40.399Z,101729.03
2022-10-13T10:51:09.723Z,101724.38
2022-10-13T10:53:39.392Z,101720.19
2022-10-13T10:56:27.904Z,101710.38
2022-10-13T10:59:06.950Z,101715.00
2022-10-13T11:01:39.825Z,101636.88
2022-10-13T11:04:33.327Z,101697.03
2022-10-13T11:06:59.920Z,101668.44
2022-10-13T11:09:42.121Z,101643.19
2022-10-13T11:12:21.768Z,101627.84
2022-10-13T11:14:54.917Z,101678.03
2022-10-13T11:17:28.726Z,101598.94
2022-10-13T11:19:56.623Z,101555.03
2022-10-13T11:22:28.466Z,101663.72
2022-10-13T11:25:23.307Z,101636.47
2022-10-13T11:27:50.194Z,101632.28
2022-10-13T11:30:47.653Z,101649.84
2022-10-13T11:33:34.566Z,101642.06
2022-10-13T11:36:32.168Z,101637.47
2022-10-13T11:39:16.993Z,101630.88
2022-10-13T11:41:54.991Z,101629.72
2022-10-13T11:44:48.628Z,101605.31
2022-10-13T11:48:03.574Z,101626.59
2022-10-13T11:51:03.918Z,101434.56
2022-10-13T11:53:53.483Z,101596.75
2022-10-13T11:56:31.888Z,101595.69
2022-10-13T11:58:59.091Z,101622.13
2022-10-13T12:01:25.686Z,101621.81
2022-10-13T12:03:53.759Z,101622.94
2022-10-13T12:06:37.025Z,101600.25
2022-10-13T12:09:14.567Z,101615.91
2022-10-13T12:11:41.718Z,101554.69
2022-10-13T12:14:29.131Z,101610.38
2022-10-13T12:16:58.101Z,101602.38
2022-10-13T12:19:27.820Z,101596.41
2022-10-13T12:22:00.905Z,101572.19
2022-10-13T12:24:30.243Z,101577.22
2022-10-13T12:26:58.736Z,101567.59
2022-10-13T12:29:31.040Z,101575.91
2022-10-13T12:32:00.429Z,101567.59
2022-10-13T12:34:32.454Z,101530.56
2022-10-13T12:37:14.216Z,101490.00
2022-10-13T12:39:41.408Z,101568.75
2022-10-13T12:42:13.082Z,101571.78
2022-10-13T12:44:42.072Z,101537.25
2022-10-13T12:47:43.833Z,101573.97
2022-10-13T12:50:27.419Z,101576.22
2022-10-13T12:53:09.327Z,101565.00
2022-10-13T12:55:45.521Z,101558.31
2022-10-13T12:58:33.081Z,101562.03
2022-10-13T13:01:16.859Z,101570.44
2022-10-13T13:03:43.968Z,101549.69
2022-10-13T13:06:22.775Z,101543.50
2022-10-13T13:09:24.467Z,101564.09
2022-10-13T13:12:26.646Z,101554.31
2022-10-13T13:14:55.124Z,101545.06
2022-10-13T13:17:45.729Z,101569.66
2022-10-13T13:20:29.245Z,101494.47
2022-10-13T13:22:56.268Z,101512.25
2022-10-13T13:25:23.840Z,101549.94
2022-10-13T13:27:51.939Z,101558.00
2022-10-13T13:30:21.444Z,101479.53
2022-10-13T13:32:49.281Z,101556.09
2022-10-13T13:35:16.479Z,101544.16
2022-10-13T13:37:50.608Z,101496.78
2022-10-13T13:40:20.266Z,101524.09
2022-10-13T13:42:47.072Z,101544.81
2022-10-13T13:45:14.956Z,101540.28
2022-10-13T13:47:42.163Z,101525.91
2022-10-13T13:50:18.217Z,101545.38
2022-10-13T13:52:44.866Z,101539.91
2022-10-13T13:55:11.461Z,101540.16
2022-10-13T13:57:38.529Z,101501.00
2022-10-13T14:00:09.614Z,101499.03
2022-10-13T14:02:36.327Z,101508.19
2022-10-13T14:05:03.955Z,101522.81
2022-10-13T14:07:30.951Z,101522.63
2022-10-13T14:10:01.808Z,101452.69
2022-10-13T14:12:33.005Z,101514.44
2022-10-13T14:14:59.799Z,101517.31
2022-10-13T14:17:27.263Z,101519.63
2022-10-13T14:19:54.601Z,101506.13
2022-10-13T14:22:22.461Z,101447.66
2022-10-13T14:24:49.648Z,101526.09
2022-10-13T14:27:16.485Z,101512.28
2022-10-13T14:29:43.111Z,101520.56
2022-10-13T14:32:09.865Z,101507.56
2022-10-13T14:34:36.418Z,101481.16
2022-10-13T14:37:03.000Z,101500.97
2022-10-13T14:39:29.879Z,101515.94
2022-10-13T14:41:56.742Z,101500.22
2022-10-13T14:44:23.364Z,101447.00
2022-10-13T14:46:50.118Z,101474.75
2022-10-13T14:49:16.580Z,101480.88
2022-10-13T14:51:43.627Z,101464.22
2022-10-13T14:54:10.541Z,101484.06
2022-10-13T14:56:37.456Z,101500.16
2022-10-13T14:59:07.057Z,101477.59
2022-10-13T15:01:34.189Z,101452.19
2022-10-13T15:04:01.763Z,101483.94
2022-10-13T15:06:28.682Z,101491.59
2022-10-13T15:08:55.434Z,101454.06
2022-10-13T15:11:23.131Z,101488.59
2022-10-13T15:13:49.866Z,101477.44
2022-10-13T15:16:21.876Z,101483.53
2022-10-13T15:18:48.807Z,101474.41
2022-10-13T15:21:16.818Z,101402.59
2022-10-13T15:23:44.232Z,101478.59
2022-10-13T15:26:12.121Z,101479.47
2022-10-13T15:28:41.758Z,101481.16
2022-10-13T15:31:08.845Z,101385.09
2022-10-13T15:33:35.431Z,101484.97
2022-10-13T15:36:02.191Z,101483.53
2022-10-13T15:38:28.895Z,101473.69
2022-10-13T15:41:03.334Z,101470.28
2022-10-13T15:43:31.150Z,101449.53
2022-10-13T15:46:02.295Z,101463.81
2022-10-13T15:48:29.405Z,101454.94
2022-10-13T15:50:56.223Z,101449.78
2022-10-13T15:53:23.696Z,101434.06
2022-10-13T15:55:50.398Z,101459.19
2022-10-13T15:58:17.481Z,101447.56
2022-10-13T16:00:44.288Z,101435.19
2022-10-13T16:03:18.305Z,101471.41
2022-10-13T16:05:46.614Z,101465.91
2022-10-13T16:08:14.330Z,101451.03
2022-10-13T16:10:42.344Z,101468.53
2022-10-13T16:13:12.535Z,101460.16
2022-10-13T16:15:39.473Z,101440.91
2022-10-13T16:18:06.553Z,101422.47
2022-10-13T16:20:37.478Z,101455.91
2022-10-13T16:23:04.921Z,101399.28
2022-10-13T16:25:32.176Z,101403.38
2022-10-13T16:27:59.944Z,101412.03
2022-10-13T16:30:27.413Z,101448.81
2022-10-13T16:32:54.161Z,101456.91
2022-10-13T16:35:20.931Z,101446.13
2022-10-13T16:37:48.910Z,101459.22
2022-10-13T16:40:15.802Z,101458.41
2022-10-13T16:42:43.323Z,101457.56
2022-10-13T16:45:10.255Z,101442.66
2022-10-13T16:47:36.943Z,101457.94
2022-10-13T16:50:09.281Z,101454.66
2022-10-13T16:52:37.680Z,101456.16
2022-10-13T16:55:05.457Z,101464.47
2022-10-13T16:57:32.616Z,101461.47
2022-10-13T16:59:59.329Z,101422.81
2022-10-13T17:02:26.103Z,101458.84
2022-10-13T17:04:53.094Z,101446.94
2022-10-13T17:07:19.968Z,101462.22
2022-10-13T17:09:47.264Z,101448.59
2022-10-13T17:12:13.903Z,101456.34
2022-10-13T17:14:40.445Z,101454.22
2022-10-13T17:17:07.201Z,101421.41
2022-10-13T17:19:34.060Z,101464.34
2022-10-13T17:22:00.613Z,101442.13
2022-10-13T17:24:27.607Z,101455.63
2022-10-13T17:26:54.316Z,101469.59
2022-10-13T17:29:21.293Z,101472.03
2022-10-13T17:31:48.224Z,101469.69
2022-10-13T17:34:15.295Z,101454.31
2022-10-13T17:36:41.884Z,101477.84
2022-10-13T17:39:09.995Z,101461.69
2022-10-13T17:41:37.341Z,101454.31
2022-10-13T17:44:04.307Z,101470.78
2022-10-13T17:46:37.422Z,101404.03
2022-10-13T17:49:06.347Z,101467.78
2022-10-13T17:51:32.905Z,101455.34
2022-10-13T17:54:00.500Z,101457.13
2022-10-13T17:56:28.856Z,101434.47
2022-10-13T17:58:55.639Z,101459.38
2022-10-13T18:01:31.765Z,101467.47
2022-10-13T18:04:01.567Z,101419.88
2022-10-13T18:06:33.823Z,101476.50
2022-10-13T18:09:11.233Z,101478.59
2022-10-13T18:11:38.232Z,101433.81
2022-10-13T18:14:05.546Z,101476.66
2022-10-13T18:16:32.697Z,101480.88
2022-10-13T18:19:04.279Z,101483.91
2022-10-13T18:21:31.146Z,101477.38
2022-10-13T18:24:02.502Z,101477.72
2022-10-13T18:26:37.325Z,101376.66
2022-10-13T18:29:05.949Z,101471.38
2022-10-13T18:31:34.434Z,101414.94
2022-10-13T18:34:04.104Z,101479.28
2022-10-13T18:36:32.520Z,101482.16
2022-10-13T18:39:04.203Z,101466.06
2022-10-13T18:41:30.756Z,101484.75
2022-10-13T18:43:57.682Z,101448.13
2022-10-13T18:46:24.438Z,101473.81
2022-10-13T18:48:51.125Z,101441.69
2022-10-13T18:51:19.200Z,101463.19
2022-10-13T18:53:47.843Z,101464.63
2022-10-13T18:56:24.106Z,101407.09
2022-10-13T18:58:58.414Z,101466.34
2022-10-13T19:01:27.913Z,101463.88
2022-10-13T19:03:55.022Z,101438.38
2022-10-13T19:06:26.940Z,101472.56
2022-10-13T19:09:04.073Z,101468.53
2022-10-13T19:11:32.710Z,101485.72
2022-10-13T19:14:00.650Z,101476.19
2022-10-13T19:16:29.533Z,101492.00
2022-10-13T19:18:56.602Z,101462.72
2022-10-13T19:21:23.842Z,101483.56
2022-10-13T19:23:50.717Z,101488.59
2022-10-13T19:26:21.020Z,101468.81
2022-10-13T19:28:48.096Z,101483.41
2022-10-13T19:31:20.158Z,101484.22
2022-10-13T19:33:50.910Z,101481.66
2022-10-13T19:36:38.168Z,101476.81
2022-10-13T19:39:13.251Z,101482.28
2022-10-13T19:41:42.270Z,101489.16
2022-10-13T19:44:11.080Z,101469.88
2022-10-13T19:46:38.715Z,101481.78
2022-10-13T19:49:05.907Z,101456.78
2022-10-13T19:51:34.418Z,101225.59
2022-10-13T19:54:01.631Z,101486.41
2022-10-13T19:56:31.828Z,101452.00
2022-10-13T19:58:59.448Z,101478.56
2022-10-13T20:01:26.850Z,101480.94
2022-10-13T20:03:54.120Z,101477.88
2022-10-13T20:06:22.245Z,101480.94
2022-10-13T20:08:49.421Z,101484.63
2022-10-13T20:11:23.882Z,101489.13
2022-10-13T20:13:52.504Z,101470.16
2022-10-13T20:16:21.879Z,101241.94
2022-10-13T20:18:53.722Z,101493.34
2022-10-13T20:21:35.047Z,101488.63
2022-10-13T20:24:01.747Z,101492.00
2022-10-13T20:26:28.499Z,101499.06
2022-10-13T20:28:55.602Z,101413.69
2022-10-13T20:31:22.627Z,101505.09
2022-10-13T20:33:54.528Z,101460.41
2022-10-13T20:36:21.906Z,101484.78
2022-10-13T20:38:49.288Z,101487.13
2022-10-13T20:41:19.499Z,101497.38
2022-10-13T20:43:47.619Z,101502.94
2022-10-13T20:46:16.063Z,101501.75
2022-10-13T20:49:09.491Z,101473.69
2022-10-13T20:51:30.053Z,101494.16
2022-10-13T20:53:56.656Z,101466.13
2022-10-13T20:56:32.985Z,101466.75
2022-10-13T20:59:09.730Z,101454.34
2022-10-13T21:01:37.450Z,101489.13
2022-10-13T21:04:04.674Z,101485.97
2022-10-13T21:06:31.402Z,101488.13
2022-10-13T21:08:58.118Z,101486.94
2022-10-13T21:11:26.166Z,101461.75
2022-10-13T21:13:53.286Z,101466.94
2022-10-13T21:16:23.565Z,101490.66
2022-10-13T21:18:52.017Z,101480.22
2022-10-13T21:21:23.965Z,101490.31
2022-10-13T21:23:56.233Z,101496.03
2022-10-13T21:26:25.159Z,101479.38
2022-10-13T21:28:52.525Z,101493.53
2022-10-13T21:31:22.148Z,101446.63
2022-10-13T21:33:49.709Z,101488.19
2022-10-13T21:36:24.482Z,101478.56
2022-10-13T21:38:54.333Z,101477.56
2022-10-13T21:41:21.660Z,101463.44
2022-10-13T21:43:49.976Z,101482.41
2022-10-13T21:46:28.255Z,101460.91
2022-10-13T21:48:57.095Z,101460.19
2022-10-13T21:51:29.220Z,101486.06
2022-10-13T21:53:58.220Z,101400.78
2022-10-13T21:56:26.690Z,101459.16
2022-10-13T21:58:54.706Z,101474.78
2022-10-13T22:01:22.622Z,101469.09
2022-10-13T22:03:56.242Z,101448.41
2022-10-13T22:06:23.250Z,101479.16
2022-10-13T22:08:51.642Z,101464.50
2022-10-13T22:11:19.708Z,101488.53
2022-10-13T22:13:46.459Z,101441.72
2022-10-13T22:16:19.045Z,101483.81
2022-10-13T22:18:46.571Z,101469.13
2022-10-13T22:21:16.317Z,101488.16
2022-10-13T22:23:43.800Z,101484.78
2022-10-13T22:26:12.457Z,101485.47
2022-10-13T22:28:39.438Z,101458.66
2022-10-13T22:31:11.430Z,101484.78
2022-10-13T22:33:43.957Z,101427.44
2022-10-13T22:36:14.611Z,101470.34
2022-10-13T22:38:41.837Z,101452.34
2022-10-13T22:41:09.283Z,101449.28
2022-10-13T22:43:36.727Z,101476.75
2022-10-13T22:46:04.097Z,101432.50
2022-10-13T22:48:30.713Z,101437.88
2022-10-13T22:50:57.854Z,101454.72
2022-10-13T22:53:24.542Z,101465.16
2022-10-13T22:55:51.743Z,101465.06
2022-10-13T22:58:18.330Z,101465.25
2022-10-13T23:00:44.963Z,101456.84
2022-10-13T23:03:14.164Z,101444.22
2022-10-13T23:05:42.803Z,101459.53
2022-10-13T23:08:10.151Z,101467.59
2022-10-13T23:10:37.349Z,101459.84
2022-10-13T23:13:04.854Z,101461.47
2022-10-13T23:15:32.216Z,101467.88
2022-10-13T23:17:58.855Z,101469.66
2022-10-13T23:20:25.435Z,101448.63
2022-10-13T23:22:52.158Z,101436.72
2022-10-13T23:25:18.781Z,101445.44
2022-10-13T23:27:45.271Z,101460.75
2022-10-13T23:30:12.474Z,101448.28
2022-10-13T23:32:39.254Z,101448.63
2022-10-13T23:35:06.266Z,101424.03
2022-10-13T23:37:32.869Z,101451.28
2022-10-13T23:39:59.471Z,101446.75
2022-10-13T23:42:26.150Z,101442.22
2022-10-13T23:44:52.748Z,101435.81
2022-10-13T23:47:19.792Z,101442.03
2022-10-13T23:49:46.560Z,101427.75
2022-10-13T23:52:13.186Z,101443.72
2022-10-13T23:54:39.765Z,101442.88
2022-10-13T23:57:06.374Z,101416.28
2022-10-13T23:59:33.364Z,101441.84
